createdAt,value
2022-07-26T00:00:51.166Z,17.34
2022-07-26T00:03:18.208Z,17.30
2022-07-26T00:05:45.221Z,17.24
2022-07-26T00:08:12.571Z,17.21
2022-07-26T00:10:43.435Z,17.20
2022-07-26T00:13:11.002Z,17.14
2022-07-26T00:15:39.241Z,17.12
2022-07-26T00:18:11.865Z,17.14
2022-07-26T00:20:41.471Z,17.10
2022-07-26T00:23:08.705Z,17.06
2022-07-26T00:25:35.963Z,17.04
2022-07-26T00:28:03.284Z,16.98
2022-07-26T00:30:30.624Z,16.99
2022-07-26T00:32:57.679Z,16.95
2022-07-26T00:35:25.090Z,16.93
2022-07-26T00:37:52.653Z,16.90
2022-07-26T00:40:20.215Z,16.88
2022-07-26T00:42:47.515Z,16.82
2022-07-26T00:45:15.532Z,16.77
2022-07-26T00:47:42.941Z,16.73
2022-07-26T00:50:13.425Z,16.68
2022-07-26T00:52:43.099Z,16.64
2022-07-26T00:55:10.603Z,16.61
2022-07-26T00:57:39.457Z,16.57
2022-07-26T01:00:10.337Z,16.51
2022-07-26T01:02:38.288Z,16.48
2022-07-26T01:05:07.042Z,16.44
2022-07-26T01:07:34.721Z,16.43
2022-07-26T01:10:03.248Z,16.40
2022-07-26T01:12:30.509Z,16.38
2022-07-26T01:14:57.520Z,16.33
2022-07-26T01:17:24.645Z,16.29
2022-07-26T01:19:51.947Z,16.24
2022-07-26T01:22:18.957Z,16.20
2022-07-26T01:24:45.998Z,16.19
2022-07-26T01:27:13.830Z,16.18
2022-07-26T01:29:41.260Z,16.16
2022-07-26T01:32:08.803Z,16.13
2022-07-26T01:34:36.070Z,16.09
2022-07-26T01:37:03.837Z,16.08
2022-07-26T01:39:30.875Z,16.03
2022-07-26T01:41:59.373Z,16.00
2022-07-26T01:44:26.512Z,15.98
2022-07-26T01:46:53.466Z,15.96
2022-07-26T01:49:21.051Z,15.99
2022-07-26T01:51:48.395Z,16.01
2022-07-26T01:54:15.370Z,16.04
2022-07-26T01:56:49.939Z,16.04
2022-07-26T01:59:17.001Z,16.01
2022-07-26T02:01:44.070Z,15.97
2022-07-26T02:04:31.412Z,15.92
2022-07-26T02:06:58.434Z,15.89
2022-07-26T02:09:25.916Z,15.87
2022-07-26T02:11:55.155Z,15.83
2022-07-26T02:14:25.749Z,15.80
2022-07-26T02:17:00.076Z,15.73
2022-07-26T02:19:31.582Z,15.69
2022-07-26T02:21:59.217Z,15.66
2022-07-26T02:24:30.779Z,15.64
2022-07-26T02:26:59.591Z,15.61
2022-07-26T02:29:28.238Z,15.60
2022-07-26T02:31:56.455Z,15.59
2022-07-26T02:34:23.703Z,15.54
2022-07-26T02:36:51.056Z,15.51
2022-07-26T02:39:18.401Z,15.54
2022-07-26T02:41:45.634Z,15.52
2022-07-26T02:44:13.087Z,15.50
2022-07-26T02:46:40.242Z,15.48
2022-07-26T02:49:07.557Z,15.49
2022-07-26T02:51:34.968Z,15.53
2022-07-26T02:54:01.981Z,15.56
2022-07-26T02:56:29.038Z,15.63
2022-07-26T02:58:56.467Z,15.70
2022-07-26T03:01:23.787Z,15.78
2022-07-26T03:03:51.293Z,15.86
2022-07-26T03:06:20.106Z,15.95
2022-07-26T03:08:48.390Z,16.15
2022-07-26T03:11:16.107Z,16.44
2022-07-26T03:13:43.384Z,16.73
2022-07-26T03:16:10.893Z,17.07
2022-07-26T03:18:38.063Z,17.41
2022-07-26T03:21:05.483Z,17.72
2022-07-26T03:23:33.720Z,18.05
2022-07-26T03:26:02.851Z,18.43
2022-07-26T03:28:32.158Z,18.81
2022-07-26T03:30:59.769Z,19.14
2022-07-26T03:33:26.940Z,19.45
2022-07-26T03:35:54.342Z,19.79
2022-07-26T03:38:21.898Z,20.18
2022-07-26T03:40:48.973Z,20.49
2022-07-26T03:43:17.410Z,20.81
2022-07-26T03:45:47.134Z,21.22
2022-07-26T03:48:14.304Z,21.61
2022-07-26T03:50:41.780Z,21.97
2022-07-26T03:53:09.161Z,22.33
2022-07-26T03:55:54.709Z,22.58
2022-07-26T03:58:22.262Z,22.92
2022-07-26T04:00:49.385Z,23.26
2022-07-26T04:03:19.099Z,23.52
2022-07-26T04:05:48.858Z,23.77
2022-07-26T04:08:18.132Z,24.11
2022-07-26T04:10:47.336Z,24.37
2022-07-26T04:13:14.947Z,24.55
2022-07-26T04:15:41.939Z,24.83
2022-07-26T04:18:10.321Z,24.89
2022-07-26T04:20:38.592Z,24.88
2022-07-26T04:23:10.735Z,25.02
2022-07-26T04:25:41.947Z,25.05
2022-07-26T04:28:10.584Z,25.03
2022-07-26T04:30:38.755Z,25.14
2022-07-26T04:33:07.048Z,25.38
2022-07-26T04:35:36.614Z,25.65
2022-07-26T04:38:04.258Z,25.88
2022-07-26T04:40:34.873Z,26.08
2022-07-26T04:43:09.115Z,26.28
2022-07-26T04:45:42.623Z,26.42
2022-07-26T04:48:09.673Z,26.46
2022-07-26T04:50:36.743Z,26.19
2022-07-26T04:53:04.120Z,25.78
2022-07-26T04:55:31.305Z,25.75
2022-07-26T04:57:58.578Z,25.93
2022-07-26T05:00:28.782Z,26.20
2022-07-26T05:03:00.399Z,26.45
2022-07-26T05:08:37.841Z,27.14
2022-07-26T05:11:05.311Z,27.38
2022-07-26T05:13:32.492Z,27.77
2022-07-26T05:16:11.838Z,27.80
2022-07-26T05:18:45.528Z,27.91
2022-07-26T05:21:14.443Z,27.74
2022-07-26T05:23:41.781Z,27.64
2022-07-26T05:26:08.779Z,28.00
2022-07-26T05:28:38.779Z,27.90
2022-07-26T05:31:07.730Z,27.83
2022-07-26T05:33:36.436Z,27.96
2022-07-26T05:36:03.791Z,28.30
2022-07-26T05:38:31.103Z,28.71
2022-07-26T05:40:58.675Z,28.96
2022-07-26T05:43:41.080Z,29.05
2022-07-26T05:46:24.046Z,29.29
2022-07-26T05:48:51.338Z,29.55
2022-07-26T05:51:19.355Z,29.71
2022-07-26T05:53:47.441Z,29.58
2022-07-26T05:56:15.208Z,28.93
2022-07-26T05:58:46.396Z,28.41
2022-07-26T06:01:13.493Z,27.96
2022-07-26T06:03:40.859Z,27.57
2022-07-26T06:06:19.767Z,27.08
2022-07-26T06:08:47.166Z,26.75
2022-07-26T06:11:14.602Z,26.41
2022-07-26T06:13:42.011Z,26.12
2022-07-26T06:16:09.635Z,25.89
2022-07-26T06:18:37.156Z,25.61
2022-07-26T06:21:05.541Z,25.50
2022-07-26T06:23:35.139Z,25.34
2022-07-26T06:26:04.980Z,25.20
2022-07-26T06:28:32.882Z,25.17
2022-07-26T06:30:59.949Z,25.08
2022-07-26T06:33:27.500Z,24.96
2022-07-26T06:35:54.673Z,24.83
2022-07-26T06:38:22.395Z,24.76
2022-07-26T06:40:49.916Z,24.64
2022-07-26T06:43:17.083Z,24.52
2022-07-26T06:45:44.372Z,24.57
2022-07-26T06:48:12.607Z,24.56
2022-07-26T06:50:42.851Z,24.50
2022-07-26T06:53:09.984Z,24.49
2022-07-26T06:55:44.011Z,24.49
2022-07-26T06:58:16.944Z,24.48
2022-07-26T07:00:44.369Z,24.47
2022-07-26T07:03:16.504Z,24.44
2022-07-26T07:05:49.432Z,24.44
2022-07-26T07:08:18.927Z,24.46
2022-07-26T07:11:08.158Z,24.53
2022-07-26T07:13:50.860Z,24.57
2022-07-26T07:16:18.493Z,24.59
2022-07-26T07:18:51.486Z,24.64
2022-07-26T07:21:22.065Z,24.70
2022-07-26T07:24:00.099Z,24.69
2022-07-26T07:30:29.822Z,24.72
2022-07-26T07:32:57.605Z,24.79
2022-07-26T07:35:31.769Z,24.80
2022-07-26T07:38:02.121Z,24.85
2022-07-26T07:40:30.136Z,24.93
2022-07-26T07:42:58.400Z,24.98
2022-07-26T07:45:26.053Z,25.04
2022-07-26T07:47:53.176Z,25.14
2022-07-26T07:50:28.321Z,25.27
2022-07-26T07:52:59.180Z,25.27
2022-07-26T07:55:44.144Z,25.30
2022-07-26T07:58:15.868Z,25.36
2022-07-26T08:00:48.459Z,25.39
2022-07-26T08:03:17.843Z,25.47
2022-07-26T08:05:50.743Z,25.61
2022-07-26T08:08:22.906Z,25.62
2022-07-26T08:10:53.148Z,25.70
2022-07-26T08:13:26.518Z,25.80
2022-07-26T08:15:56.346Z,25.91
2022-07-26T08:18:24.391Z,26.02
2022-07-26T08:20:52.256Z,26.14
2022-07-26T08:23:21.412Z,26.30
2022-07-26T08:25:57.038Z,26.52
2022-07-26T08:31:21.941Z,27.21
2022-07-26T08:33:49.685Z,28.47
2022-07-26T08:37:16.082Z,29.52
2022-07-26T08:39:44.226Z,30.79
2022-07-26T08:45:03.952Z,32.00
2022-07-26T08:47:39.869Z,32.59
2022-07-26T08:50:10.092Z,32.83
2022-07-26T08:52:41.134Z,32.71
2022-07-26T08:55:12.362Z,32.65
2022-07-26T08:57:40.198Z,32.88
2022-07-26T09:00:19.154Z,33.26
2022-07-26T09:02:47.218Z,33.51
2022-07-26T09:07:58.106Z,33.63
2022-07-26T09:10:25.903Z,33.89
2022-07-26T09:12:54.545Z,33.71
2022-07-26T09:15:27.106Z,34.32
2022-07-26T09:18:04.467Z,34.98
2022-07-26T09:20:47.163Z,34.78
2022-07-26T09:23:16.447Z,35.10
2022-07-26T09:25:45.802Z,34.74
2022-07-26T09:28:24.686Z,34.18
2022-07-26T09:31:00.776Z,33.71
2022-07-26T09:33:44.452Z,34.28
2022-07-26T09:36:11.741Z,34.59
2022-07-26T09:38:43.814Z,35.59
2022-07-26T09:41:28.588Z,36.33
2022-07-26T09:44:00.190Z,36.36
2022-07-26T09:46:32.401Z,35.55
2022-07-26T09:49:18.759Z,35.35
2022-07-26T09:51:49.805Z,35.23
2022-07-26T09:54:20.910Z,35.22
2022-07-26T09:56:50.813Z,36.01
2022-07-26T09:59:20.622Z,35.92
2022-07-26T10:01:48.844Z,36.05
2022-07-26T10:04:16.914Z,36.41
2022-07-26T10:06:44.849Z,36.17
2022-07-26T10:09:13.797Z,35.86
2022-07-26T10:12:14.603Z,35.41
2022-07-26T10:14:52.997Z,35.14
2022-07-26T10:17:31.662Z,34.71
2022-07-26T10:20:17.467Z,34.35
2022-07-26T10:22:56.332Z,35.19
2022-07-26T10:25:23.697Z,35.78
2022-07-26T10:27:55.961Z,35.37
2022-07-26T10:30:27.770Z,35.01
2022-07-26T10:33:14.758Z,35.27
2022-07-26T10:35:43.592Z,34.85
2022-07-26T10:38:23.821Z,34.51
2022-07-26T10:41:06.466Z,34.22
2022-07-26T10:43:42.561Z,33.88
2022-07-26T10:46:16.166Z,33.57
2022-07-26T10:49:05.580Z,32.89
2022-07-26T10:51:37.618Z,32.72
2022-07-26T10:54:06.823Z,32.57
2022-07-26T10:56:34.395Z,32.44
2022-07-26T10:59:02.410Z,32.80
2022-07-26T11:01:42.442Z,33.36
2022-07-26T11:04:20.773Z,33.64
2022-07-26T11:07:04.196Z,33.12
2022-07-26T11:09:36.270Z,32.61
2022-07-26T11:12:20.446Z,32.00
2022-07-26T11:14:51.289Z,31.61
2022-07-26T11:17:31.477Z,31.44
2022-07-26T11:20:00.809Z,31.42
2022-07-26T11:22:32.704Z,31.43
2022-07-26T11:24:59.901Z,31.21
2022-07-26T11:27:30.918Z,30.96
2022-07-26T11:30:05.051Z,30.84
2022-07-26T11:32:32.810Z,30.87
2022-07-26T11:35:05.303Z,30.90
2022-07-26T11:40:14.502Z,30.84
2022-07-26T11:42:41.584Z,30.82
2022-07-26T11:45:13.018Z,30.73
2022-07-26T11:47:40.731Z,30.52
2022-07-26T11:50:14.337Z,30.29
2022-07-26T11:52:46.387Z,30.25
2022-07-26T11:55:13.497Z,30.26
2022-07-26T11:57:40.666Z,30.33
2022-07-26T12:00:08.845Z,30.36
2022-07-26T12:02:35.968Z,30.43
2022-07-26T12:05:33.496Z,30.44
2022-07-26T12:08:04.421Z,30.48
2022-07-26T12:10:31.916Z,30.45
2022-07-26T12:13:12.532Z,30.72
2022-07-26T12:15:52.327Z,30.84
2022-07-26T12:18:27.209Z,30.87
2022-07-26T12:21:05.101Z,31.07
2022-07-26T12:23:50.007Z,31.08
2022-07-26T12:26:40.876Z,30.93
2022-07-26T12:29:27.440Z,30.79
2022-07-26T12:32:12.470Z,30.71
2022-07-26T12:37:51.760Z,30.92
2022-07-26T12:43:16.283Z,30.90
2022-07-26T12:45:44.345Z,30.89
2022-07-26T12:48:11.999Z,30.76
2022-07-26T12:50:39.344Z,30.73
2022-07-26T12:53:12.636Z,30.70
2022-07-26T12:55:40.034Z,30.77
2022-07-26T12:58:07.199Z,30.70
2022-07-26T13:00:34.618Z,30.70
2022-07-26T13:03:01.742Z,30.65
2022-07-26T13:05:28.974Z,30.63
2022-07-26T13:07:56.376Z,30.69
2022-07-26T13:10:34.414Z,30.83
2022-07-26T13:13:03.873Z,30.97
2022-07-26T13:15:36.211Z,31.06
2022-07-26T13:18:08.962Z,31.01
2022-07-26T13:20:39.967Z,30.98
2022-07-26T13:23:13.943Z,31.01
2022-07-26T13:25:44.259Z,30.94
2022-07-26T13:28:12.347Z,30.99
2022-07-26T13:30:41.260Z,31.06
2022-07-26T13:33:08.451Z,31.07
2022-07-26T13:35:39.012Z,31.15
2022-07-26T13:38:08.166Z,31.27
2022-07-26T13:40:36.170Z,31.37
2022-07-26T13:43:04.781Z,31.47
2022-07-26T13:45:32.190Z,31.27
2022-07-26T13:47:59.836Z,31.12
2022-07-26T13:50:28.429Z,31.16
2022-07-26T13:52:57.283Z,31.12
2022-07-26T13:55:25.299Z,31.11
2022-07-26T13:57:56.854Z,30.98
2022-07-26T14:00:36.861Z,30.87
2022-07-26T14:03:05.131Z,30.91
2022-07-26T14:05:32.671Z,31.03
2022-07-26T14:08:00.012Z,31.15
2022-07-26T14:10:27.702Z,31.28
2022-07-26T14:15:42.683Z,31.40
2022-07-26T14:18:09.912Z,31.43
2022-07-26T14:20:37.292Z,31.47
2022-07-26T14:23:04.681Z,31.47
2022-07-26T14:25:33.403Z,31.38
2022-07-26T14:28:03.493Z,31.40
2022-07-26T14:33:32.170Z,31.34
2022-07-26T14:36:10.061Z,31.33
2022-07-26T14:38:40.933Z,31.27
2022-07-26T14:41:18.689Z,31.27
2022-07-26T14:43:54.040Z,31.22
2022-07-26T14:46:26.729Z,31.19
2022-07-26T14:48:55.085Z,31.21
2022-07-26T14:51:22.910Z,31.21
2022-07-26T14:53:53.352Z,31.26
2022-07-26T15:01:50.949Z,31.21
2022-07-26T15:04:19.506Z,31.16
2022-07-26T15:06:47.261Z,31.11
2022-07-26T15:09:15.430Z,31.09
2022-07-26T15:12:09.806Z,31.10
2022-07-26T15:14:37.396Z,31.11
2022-07-26T15:17:04.730Z,31.17
2022-07-26T15:19:31.794Z,31.18
2022-07-26T15:22:02.241Z,31.08
2022-07-26T15:24:29.785Z,30.99
2022-07-26T15:27:00.889Z,30.97
2022-07-26T15:29:27.948Z,30.97
2022-07-26T15:31:55.910Z,30.90
2022-07-26T15:34:23.137Z,30.86
2022-07-26T15:36:51.546Z,30.75
2022-07-26T15:39:18.922Z,30.72
2022-07-26T15:41:47.774Z,30.70
2022-07-26T15:44:21.746Z,30.67
2022-07-26T15:46:52.082Z,30.67
2022-07-26T15:49:19.243Z,30.65
2022-07-26T15:51:47.506Z,30.58
2022-07-26T15:54:16.439Z,30.54
2022-07-26T15:56:46.962Z,30.58
2022-07-26T15:59:15.663Z,30.61
2022-07-26T16:01:43.417Z,30.58
2022-07-26T16:04:10.933Z,30.54
2022-07-26T16:06:38.272Z,30.51
2022-07-26T16:09:16.483Z,30.51
2022-07-26T16:11:47.637Z,30.48
2022-07-26T16:14:17.956Z,30.47
2022-07-26T16:16:45.881Z,30.48
2022-07-26T16:19:13.255Z,30.45
2022-07-26T16:21:45.129Z,30.36
2022-07-26T16:24:12.314Z,30.27
2022-07-26T16:26:39.464Z,30.20
2022-07-26T16:29:06.902Z,30.11
2022-07-26T16:31:34.428Z,30.11
2022-07-26T16:34:01.667Z,30.11
2022-07-26T16:36:29.040Z,30.11
2022-07-26T16:38:56.120Z,30.09
2022-07-26T16:41:23.286Z,30.06
2022-07-26T16:43:50.791Z,30.00
2022-07-26T16:46:18.550Z,29.95
2022-07-26T16:48:47.105Z,29.88
2022-07-26T16:51:16.912Z,29.84
2022-07-26T16:53:45.599Z,29.77
2022-07-26T16:56:12.633Z,29.61
2022-07-26T16:58:40.074Z,29.53
2022-07-26T17:01:07.271Z,29.40
2022-07-26T17:03:34.648Z,29.32
2022-07-26T17:06:06.501Z,29.27
2022-07-26T17:08:33.980Z,29.15
2022-07-26T17:11:01.301Z,29.08
2022-07-26T17:13:29.683Z,28.99
2022-07-26T17:15:58.615Z,28.90
2022-07-26T17:18:26.450Z,28.77
2022-07-26T17:20:54.144Z,28.66
2022-07-26T17:23:24.774Z,28.55
2022-07-26T17:25:54.974Z,28.45
2022-07-26T17:28:22.381Z,28.39
2022-07-26T17:30:50.879Z,28.29
2022-07-26T17:33:20.982Z,28.19
2022-07-26T17:35:48.778Z,28.04
2022-07-26T17:41:15.719Z,27.75
2022-07-26T17:43:47.396Z,27.59
2022-07-26T17:46:15.246Z,27.42
2022-07-26T17:48:45.600Z,27.30
2022-07-26T17:51:19.424Z,27.19
2022-07-26T17:53:51.014Z,27.06
2022-07-26T17:56:21.666Z,26.91
2022-07-26T17:58:50.497Z,26.78
2022-07-26T18:01:17.667Z,26.66
2022-07-26T18:03:47.801Z,26.52
2022-07-26T18:06:16.437Z,26.37
2022-07-26T18:08:43.737Z,26.26
2022-07-26T18:11:14.330Z,26.14
2022-07-26T18:13:43.626Z,26.02
2022-07-26T18:16:11.551Z,25.90
2022-07-26T18:18:39.037Z,25.79
2022-07-26T18:21:07.222Z,25.70
2022-07-26T18:24:06.722Z,25.59
2022-07-26T18:26:32.916Z,25.48
2022-07-26T18:29:03.228Z,25.43
2022-07-26T18:31:32.441Z,25.36
2022-07-26T18:34:05.986Z,25.28
2022-07-26T18:36:35.772Z,25.16
2022-07-26T18:39:03.153Z,25.05
2022-07-26T18:41:31.811Z,24.95
2022-07-26T18:44:01.953Z,24.84
2022-07-26T18:46:37.977Z,24.74
2022-07-26T18:49:07.019Z,24.59
2022-07-26T18:51:34.473Z,24.46
2022-07-26T18:54:02.627Z,24.38
2022-07-26T18:56:36.790Z,24.30
2022-07-26T18:59:04.516Z,24.21
2022-07-26T19:01:32.005Z,24.14
2022-07-26T19:04:06.989Z,24.09
2022-07-26T19:06:35.982Z,24.07
2022-07-26T19:09:03.140Z,24.03
2022-07-26T19:11:31.465Z,23.97
2022-07-26T19:14:09.949Z,23.91
2022-07-26T19:16:38.667Z,23.81
2022-07-26T19:19:06.065Z,23.71
2022-07-26T19:21:33.321Z,23.62
2022-07-26T19:24:02.654Z,23.54
2022-07-26T19:26:30.030Z,23.45
2022-07-26T19:28:57.367Z,23.37
2022-07-26T19:31:24.547Z,23.26
2022-07-26T19:33:52.304Z,23.16
2022-07-26T19:36:26.081Z,23.06
2022-07-26T19:38:55.878Z,22.94
2022-07-26T19:41:23.359Z,22.86
2022-07-26T19:43:57.275Z,22.83
2022-07-26T19:46:27.870Z,22.77
2022-07-26T19:48:55.545Z,22.68
2022-07-26T19:51:23.161Z,22.63
2022-07-26T19:53:52.369Z,22.46
2022-07-26T19:56:22.051Z,22.32
2022-07-26T19:58:51.823Z,22.18
2022-07-26T20:01:19.555Z,22.07
2022-07-26T20:03:46.685Z,21.98
2022-07-26T20:06:13.804Z,21.90
2022-07-26T20:08:41.363Z,21.85
2022-07-26T20:11:08.501Z,21.77
2022-07-26T20:13:35.661Z,21.75
2022-07-26T20:16:03.841Z,21.71
2022-07-26T20:18:31.330Z,21.67
2022-07-26T20:20:58.958Z,21.63
2022-07-26T20:23:31.190Z,21.59
2022-07-26T20:25:58.248Z,21.59
2022-07-26T20:28:25.497Z,21.58
2022-07-26T20:30:55.078Z,21.54
2022-07-26T20:33:22.476Z,21.51
2022-07-26T20:35:55.027Z,21.48
2022-07-26T20:38:23.209Z,21.46
2022-07-26T20:40:55.275Z,21.41
2022-07-26T20:43:22.624Z,21.39
2022-07-26T20:45:50.511Z,21.42
2022-07-26T20:48:17.788Z,21.44
2022-07-26T20:50:44.884Z,21.43
2022-07-26T20:53:12.197Z,21.38
2022-07-26T20:55:39.230Z,21.34
2022-07-26T20:58:06.448Z,21.33
2022-07-26T21:00:33.913Z,21.29
2022-07-26T21:03:00.957Z,21.28
2022-07-26T21:05:32.347Z,21.26
2022-07-26T21:08:00.280Z,21.26
2022-07-26T21:10:29.464Z,21.22
2022-07-26T21:13:01.238Z,21.19
2022-07-26T21:15:30.974Z,21.15
2022-07-26T21:17:58.858Z,21.13
2022-07-26T21:20:25.952Z,21.11
2022-07-26T21:22:53.375Z,21.06
2022-07-26T21:25:22.236Z,21.00
2022-07-26T21:27:53.571Z,20.98
2022-07-26T21:30:21.580Z,20.92
2022-07-26T21:32:50.971Z,20.88
2022-07-26T21:35:18.126Z,20.84
2022-07-26T21:37:46.486Z,20.78
2022-07-26T21:40:13.766Z,20.73
2022-07-26T21:42:40.903Z,20.66
2022-07-26T21:45:08.979Z,20.60
2022-07-26T21:47:35.956Z,20.52
2022-07-26T21:50:03.902Z,20.47
2022-07-26T21:52:31.451Z,20.41
2022-07-26T21:54:58.500Z,20.37
2022-07-26T21:57:25.559Z,20.32
2022-07-26T21:59:53.565Z,20.28
2022-07-26T22:02:21.902Z,20.25
2022-07-26T22:04:49.035Z,20.20
2022-07-26T22:07:16.345Z,20.17
2022-07-26T22:09:43.389Z,20.12
2022-07-26T22:12:10.728Z,20.09
2022-07-26T22:17:19.378Z,20.00
2022-07-26T22:19:49.756Z,19.98
2022-07-26T22:22:16.723Z,19.93
2022-07-26T22:24:43.708Z,19.92
2022-07-26T22:27:11.056Z,19.89
2022-07-26T22:29:40.152Z,19.88
2022-07-26T22:32:07.513Z,19.85
2022-07-26T22:34:35.184Z,19.82
2022-07-26T22:37:02.115Z,19.77
2022-07-26T22:39:29.037Z,19.71
2022-07-26T22:42:14.171Z,19.68
2022-07-26T22:44:41.672Z,19.64
2022-07-26T22:47:08.959Z,19.63
2022-07-26T22:49:36.276Z,19.60
2022-07-26T22:52:03.385Z,19.57
2022-07-26T22:54:30.693Z,19.57
2022-07-26T22:56:58.804Z,19.56
2022-07-26T22:59:25.848Z,19.56
2022-07-26T23:01:53.010Z,19.54
2022-07-26T23:04:20.029Z,19.50
2022-07-26T23:06:48.373Z,19.47
2022-07-26T23:09:18.669Z,19.44
2022-07-26T23:11:45.665Z,19.38
2022-07-26T23:14:12.718Z,19.32
2022-07-26T23:16:39.944Z,19.28
2022-07-26T23:19:07.214Z,19.25
2022-07-26T23:21:34.167Z,19.24
2022-07-26T23:24:01.376Z,19.21
2022-07-26T23:26:28.443Z,19.20
2022-07-26T23:28:55.440Z,19.19
2022-07-26T23:31:23.124Z,19.16
2022-07-26T23:33:54.712Z,19.14
2022-07-26T23:36:27.699Z,19.13
2022-07-26T23:38:56.447Z,19.12
2022-07-26T23:41:24.059Z,19.09
2022-07-26T23:43:52.510Z,19.06
2022-07-26T23:46:20.600Z,19.04
2022-07-26T23:48:47.976Z,19.01
2022-07-26T23:51:14.996Z,18.99
2022-07-26T23:53:42.711Z,18.95
2022-07-26T23:56:09.909Z,18.89
2022-07-26T23:58:37.678Z,18.86
